createdAt,value
2022-09-11T00:01:58.731Z,99075.31
2022-09-11T00:04:27.812Z,99079.28
2022-09-11T00:06:59.591Z,99076.34
2022-09-11T00:09:29.593Z,99076.34
2022-09-11T00:11:58.330Z,99074.59
2022-09-11T00:14:28.323Z,99085.09
2022-09-11T00:16:59.800Z,99072.28
2022-09-11T00:19:28.320Z,99077.56
2022-09-11T00:21:57.539Z,99075.00
2022-09-11T00:24:26.357Z,99078.41
2022-09-11T00:27:01.292Z,99076.16
2022-09-11T00:29:32.654Z,99095.78
2022-09-11T00:32:01.028Z,99087.31
2022-09-11T00:34:29.587Z,99084.03
2022-09-11T00:36:59.560Z,99085.66
2022-09-11T00:39:27.967Z,99089.47
2022-09-11T00:41:58.464Z,99097.06
2022-09-11T00:45:01.966Z,99090.31
2022-09-11T00:47:33.391Z,99089.34
2022-09-11T00:50:11.430Z,99087.28
2022-09-11T00:52:44.636Z,99097.47
2022-09-11T00:55:16.316Z,99102.41
2022-09-11T00:57:52.170Z,99096.94
2022-09-11T01:00:21.321Z,99102.94
2022-09-11T01:02:53.752Z,99102.66
2022-09-11T01:05:23.967Z,99104.00
2022-09-11T01:07:54.935Z,99104.41
2022-09-11T01:10:35.507Z,99113.16
2022-09-11T01:13:18.750Z,99105.66
2022-09-11T01:15:54.675Z,99115.16
2022-09-11T01:18:28.592Z,99112.88
2022-09-11T01:21:20.065Z,99108.66
2022-09-11T01:24:10.564Z,99118.22
2022-09-11T01:26:55.716Z,99111.25
2022-09-11T01:29:31.068Z,99109.25
2022-09-11T01:32:17.511Z,99115.41
2022-09-11T01:34:54.503Z,99115.28
2022-09-11T01:37:28.545Z,99123.91
2022-09-11T01:40:03.415Z,99125.50
2022-09-11T01:42:35.051Z,99120.88
2022-09-11T01:45:07.438Z,99112.72
2022-09-11T01:47:38.432Z,99115.66
2022-09-11T01:50:11.679Z,99120.53
2022-09-11T01:52:47.575Z,99123.00
2022-09-11T01:55:22.061Z,99122.91
2022-09-11T01:57:56.491Z,99129.78
2022-09-11T02:00:28.917Z,99134.41
2022-09-11T02:03:05.479Z,99143.22
2022-09-11T02:05:37.845Z,99139.25
2022-09-11T02:08:14.078Z,99131.72
2022-09-11T02:10:49.102Z,99140.47
2022-09-11T02:13:27.828Z,99135.34
2022-09-11T02:16:06.954Z,99145.16
2022-09-11T02:18:43.200Z,99140.25
2022-09-11T02:21:13.618Z,99134.09
2022-09-11T02:23:42.675Z,99134.94
2022-09-11T02:26:12.533Z,99133.97
2022-09-11T02:28:40.706Z,99138.84
2022-09-11T02:31:11.277Z,99132.47
2022-09-11T02:33:39.750Z,99132.75
2022-09-11T02:36:28.466Z,99137.28
2022-09-11T02:39:13.355Z,99126.22
2022-09-11T02:42:00.941Z,99128.09
2022-09-11T02:44:38.192Z,99142.84
2022-09-11T02:47:20.965Z,99151.69
2022-09-11T02:50:05.536Z,99156.56
2022-09-11T02:52:47.858Z,99158.22
2022-09-11T02:55:23.927Z,99163.72
2022-09-11T02:58:02.301Z,99163.66
2022-09-11T03:00:31.458Z,99168.97
2022-09-11T03:03:02.624Z,99180.22
2022-09-11T03:05:31.874Z,99180.41
2022-09-11T03:08:00.395Z,99185.78
2022-09-11T03:10:32.262Z,99190.03
2022-09-11T03:13:00.589Z,99185.00
2022-09-11T03:15:29.205Z,99189.97
2022-09-11T03:17:58.047Z,99195.69
2022-09-11T03:20:28.017Z,99197.03
2022-09-11T03:22:56.828Z,99203.34
2022-09-11T03:25:28.407Z,99200.16
2022-09-11T03:27:56.758Z,99207.72
2022-09-11T03:30:27.319Z,99211.00
2022-09-11T03:32:58.692Z,99211.59
2022-09-11T03:35:30.215Z,99219.38
2022-09-11T03:38:04.185Z,99219.97
2022-09-11T03:40:33.659Z,99224.56
2022-09-11T03:43:02.934Z,99223.97
2022-09-11T03:45:32.778Z,99225.88
2022-09-11T03:48:01.533Z,99228.41
2022-09-11T03:50:31.716Z,99234.00
2022-09-11T03:53:00.769Z,99237.72
2022-09-11T03:55:29.910Z,99231.09
2022-09-11T03:57:59.237Z,99230.00
2022-09-11T04:00:27.999Z,99223.69
2022-09-11T04:02:58.032Z,99224.44
2022-09-11T04:05:26.956Z,99224.50
2022-09-11T04:07:56.952Z,99237.28
2022-09-11T04:10:25.224Z,99227.22
2022-09-11T04:12:53.629Z,99231.06
2022-09-11T04:15:22.570Z,99223.69
2022-09-11T04:17:51.147Z,99235.44
2022-09-11T04:20:22.095Z,99235.69
2022-09-11T04:22:51.192Z,99240.44
2022-09-11T04:25:21.410Z,99238.88
2022-09-11T04:27:49.871Z,99231.84
2022-09-11T04:30:18.579Z,99235.84
2022-09-11T04:32:48.024Z,99229.66
2022-09-11T04:35:19.424Z,99230.28
2022-09-11T04:37:48.459Z,99233.41
2022-09-11T04:40:16.781Z,99230.75
2022-09-11T04:42:46.963Z,99245.06
2022-09-11T04:45:16.367Z,99235.47
2022-09-11T04:47:48.468Z,99239.41
2022-09-11T04:50:17.093Z,99231.41
2022-09-11T04:52:47.826Z,99239.00
2022-09-11T04:55:17.202Z,99237.56
2022-09-11T04:57:49.827Z,99250.19
2022-09-11T05:00:19.070Z,99252.09
2022-09-11T05:02:49.731Z,99249.09
2022-09-11T05:05:18.159Z,99257.34
2022-09-11T05:07:49.456Z,99253.00
2022-09-11T05:10:17.904Z,99264.97
2022-09-11T05:12:47.779Z,99257.34
2022-09-11T05:15:19.830Z,99261.94
2022-09-11T05:17:49.032Z,99266.78
2022-09-11T05:20:17.793Z,99266.41
2022-09-11T05:22:47.296Z,99271.00
2022-09-11T05:25:15.804Z,99275.88
2022-09-11T05:27:43.929Z,99270.66
2022-09-11T05:30:15.848Z,99268.50
2022-09-11T05:32:44.569Z,99279.41
2022-09-11T05:35:13.003Z,99288.13
2022-09-11T05:37:41.630Z,99291.13
2022-09-11T05:40:11.265Z,99292.22
2022-09-11T05:42:45.216Z,99298.44
2022-09-11T05:45:16.012Z,99302.91
2022-09-11T05:47:46.312Z,99304.38
2022-09-11T05:50:14.941Z,99304.00
2022-09-11T05:52:43.383Z,99312.00
2022-09-11T05:55:11.868Z,99307.13
2022-09-11T05:57:42.543Z,99324.84
2022-09-11T06:00:13.436Z,99321.69
2022-09-11T06:02:45.538Z,99335.28
2022-09-11T06:05:14.147Z,99330.19
2022-09-11T06:07:42.637Z,99333.09
2022-09-11T06:10:11.672Z,99333.97
2022-09-11T06:12:39.967Z,99342.56
2022-09-11T06:15:24.867Z,99336.72
2022-09-11T06:18:02.797Z,99346.56
2022-09-11T06:20:32.757Z,99353.56
2022-09-11T06:23:02.639Z,99356.13
2022-09-11T06:25:32.629Z,99356.25
2022-09-11T06:28:01.139Z,99356.81
2022-09-11T06:30:30.023Z,99359.84
2022-09-11T06:33:00.628Z,99361.44
2022-09-11T06:35:29.048Z,99357.16
2022-09-11T06:37:57.453Z,99361.63
2022-09-11T06:40:27.575Z,99348.66
2022-09-11T06:42:56.062Z,99359.03
2022-09-11T06:45:26.297Z,99359.47
2022-09-11T06:47:56.418Z,99368.47
2022-09-11T06:50:28.377Z,99366.50
2022-09-11T06:52:56.645Z,99369.44
2022-09-11T06:55:24.730Z,99371.94
2022-09-11T06:57:52.861Z,99364.75
2022-09-11T07:00:21.386Z,99372.38
2022-09-11T07:02:53.193Z,99364.34
2022-09-11T07:05:23.658Z,99372.22
2022-09-11T07:07:55.958Z,99365.66
2022-09-11T07:10:24.841Z,99365.91
2022-09-11T07:12:55.611Z,99368.91
2022-09-11T07:15:23.960Z,99355.88
2022-09-11T07:17:52.382Z,99356.53
2022-09-11T07:20:20.971Z,99350.75
2022-09-11T07:22:49.090Z,99353.41
2022-09-11T07:25:19.040Z,99352.72
2022-09-11T07:27:47.411Z,99355.59
2022-09-11T07:30:16.087Z,99350.75
2022-09-11T07:32:45.360Z,99359.47
2022-09-11T07:35:21.608Z,99358.38
2022-09-11T07:37:51.037Z,99365.06
2022-09-11T07:40:21.473Z,99360.66
2022-09-11T07:42:51.480Z,99370.03
2022-09-11T07:45:22.550Z,99372.06
2022-09-11T07:47:51.122Z,99368.13
2022-09-11T07:50:19.328Z,99374.13
2022-09-11T07:52:48.610Z,99366.94
2022-09-11T07:55:17.157Z,99365.72
2022-09-11T07:57:50.810Z,99368.13
2022-09-11T08:00:20.311Z,99365.88
2022-09-11T08:02:48.994Z,99374.69
2022-09-11T08:05:18.822Z,99361.84
2022-09-11T08:07:47.160Z,99366.09
2022-09-11T08:10:27.306Z,99372.56
2022-09-11T08:13:00.286Z,99367.13
2022-09-11T08:15:31.578Z,99367.59
2022-09-11T08:18:00.966Z,99360.06
2022-09-11T08:20:29.151Z,99373.47
2022-09-11T08:22:57.341Z,99365.53
2022-09-11T08:25:25.511Z,99361.13
2022-09-11T08:27:53.929Z,99359.03
2022-09-11T08:30:24.005Z,99358.03
2022-09-11T08:32:52.149Z,99354.69
2022-09-11T08:35:20.706Z,99351.84
2022-09-11T08:37:52.884Z,99351.38
2022-09-11T08:40:24.232Z,99344.78
2022-09-11T08:42:56.059Z,99345.91
2022-09-11T08:45:30.130Z,99342.63
2022-09-11T08:48:00.967Z,99343.94
2022-09-11T08:50:36.251Z,99340.03
2022-09-11T08:53:09.721Z,99332.91
2022-09-11T08:55:46.747Z,99330.78
2022-09-11T08:58:22.357Z,99321.72
2022-09-11T09:00:59.528Z,99322.41
2022-09-11T09:03:43.287Z,99332.47
2022-09-11T09:06:26.423Z,99329.66
2022-09-11T09:09:04.040Z,99325.84
2022-09-11T09:11:42.080Z,99330.31
2022-09-11T09:14:34.130Z,99329.88
2022-09-11T09:17:06.908Z,99338.47
2022-09-11T09:19:40.061Z,99342.34
2022-09-11T09:22:17.583Z,99338.34
2022-09-11T09:24:50.527Z,99343.09
2022-09-11T09:27:23.374Z,99339.47
2022-09-11T09:29:58.207Z,99335.88
2022-09-11T09:32:46.365Z,99337.88
2022-09-11T09:35:19.736Z,99344.84
2022-09-11T09:37:48.851Z,99339.88
2022-09-11T09:40:19.353Z,99351.31
2022-09-11T09:43:12.309Z,99340.84
2022-09-11T09:45:50.084Z,99337.63
2022-09-11T09:48:20.950Z,99350.69
2022-09-11T09:50:49.405Z,99349.63
2022-09-11T09:53:32.734Z,99340.88
2022-09-11T09:56:01.972Z,99348.16
2022-09-11T09:58:36.324Z,99344.41
2022-09-11T10:01:04.969Z,99343.72
2022-09-11T10:03:35.266Z,99350.59
2022-09-11T10:06:10.267Z,99342.97
2022-09-11T10:08:39.665Z,99349.13
2022-09-11T10:11:12.336Z,99347.25
2022-09-11T10:13:44.360Z,99344.84
2022-09-11T10:16:22.135Z,99345.25
2022-09-11T10:18:53.609Z,99339.53
2022-09-11T10:21:25.447Z,99339.69
2022-09-11T10:23:57.156Z,99332.78
2022-09-11T10:26:30.516Z,99334.75
2022-09-11T10:29:07.292Z,99330.94
2022-09-11T10:31:37.475Z,99332.50
2022-09-11T10:34:08.372Z,99331.53
2022-09-11T10:36:36.955Z,99327.81
2022-09-11T10:39:06.471Z,99319.50
2022-09-11T10:41:36.469Z,99316.81
2022-09-11T10:44:08.092Z,99328.84
2022-09-11T10:46:40.862Z,99328.13
2022-09-11T10:49:19.693Z,99335.94
2022-09-11T10:52:06.158Z,99327.84
2022-09-11T10:55:00.316Z,99329.09
2022-09-11T10:57:33.732Z,99327.44
2022-09-11T11:00:09.448Z,99328.59
2022-09-11T11:02:41.337Z,99339.56
2022-09-11T11:05:21.318Z,99331.84
2022-09-11T11:08:13.643Z,99326.66
2022-09-11T11:10:59.736Z,99336.53
2022-09-11T11:13:43.173Z,99325.16
2022-09-11T11:16:25.746Z,99332.00
2022-09-11T11:19:10.983Z,99317.78
2022-09-11T11:21:53.484Z,99314.00
2022-09-11T11:24:35.790Z,99317.59
2022-09-11T11:27:33.509Z,99322.16
2022-09-11T11:30:11.418Z,99314.66
2022-09-11T11:32:58.490Z,99315.56
2022-09-11T11:35:36.193Z,99312.38
2022-09-11T11:38:16.753Z,99315.91
2022-09-11T11:40:49.599Z,99314.38
2022-09-11T11:43:24.957Z,99315.94
2022-09-11T11:45:59.640Z,99322.00
2022-09-11T11:48:37.088Z,99321.81
2022-09-11T11:51:10.267Z,99319.81
2022-09-11T11:53:48.799Z,99315.94
2022-09-11T11:56:27.607Z,99317.28
2022-09-11T11:59:04.329Z,99323.88
2022-09-11T12:01:40.347Z,99321.63
2022-09-11T12:04:20.281Z,99315.06
2022-09-11T12:06:49.037Z,99316.44
2022-09-11T12:09:20.748Z,99321.28
2022-09-11T12:11:53.240Z,99318.59
2022-09-11T12:14:29.161Z,99317.59
2022-09-11T12:16:58.561Z,99310.09
2022-09-11T12:19:27.149Z,99312.44
2022-09-11T12:22:16.141Z,99322.16
2022-09-11T12:25:32.466Z,99319.81
2022-09-11T12:28:21.343Z,99320.22
2022-09-11T12:31:02.186Z,99311.50
2022-09-11T12:33:58.550Z,99314.34
2022-09-11T12:36:51.732Z,99314.16
2022-09-11T12:39:27.966Z,99309.59
2022-09-11T12:42:29.388Z,99313.88
2022-09-11T12:45:01.466Z,99317.22
2022-09-11T12:47:36.928Z,99318.72
2022-09-11T12:50:17.546Z,99315.75
2022-09-11T12:52:52.190Z,99319.63
2022-09-11T12:55:33.456Z,99310.53
2022-09-11T12:58:05.477Z,99308.31
2022-09-11T13:00:40.965Z,99309.84
2022-09-11T13:03:19.186Z,99314.34
2022-09-11T13:05:55.648Z,99304.59
2022-09-11T13:08:27.864Z,99303.53
2022-09-11T13:11:36.427Z,99299.94
2022-09-11T13:14:09.247Z,99304.59
2022-09-11T13:16:50.772Z,99299.22
2022-09-11T13:19:20.921Z,99301.78
2022-09-11T13:21:56.953Z,99292.06
2022-09-11T13:24:26.819Z,99289.91
2022-09-11T13:27:00.763Z,99291.34
2022-09-11T13:29:30.860Z,99286.59
2022-09-11T13:32:11.566Z,99286.19
2022-09-11T13:34:40.754Z,99284.69
2022-09-11T13:37:11.318Z,99281.81
2022-09-11T13:39:43.001Z,99276.91
2022-09-11T13:42:16.859Z,99277.06
2022-09-11T13:44:47.816Z,99274.72
2022-09-11T13:47:22.098Z,99273.63
2022-09-11T13:49:53.500Z,99272.59
2022-09-11T13:52:24.820Z,99279.25
2022-09-11T13:54:55.945Z,99269.25
2022-09-11T13:57:26.447Z,99266.22
2022-09-11T13:59:57.181Z,99275.72
2022-09-11T14:02:54.065Z,99272.78
2022-09-11T14:05:26.402Z,99272.91
2022-09-11T14:08:01.743Z,99273.97
2022-09-11T14:10:35.645Z,99270.03
2022-09-11T14:13:15.290Z,99277.16
2022-09-11T14:15:52.219Z,99268.28
2022-09-11T14:18:33.920Z,99262.78
2022-09-11T14:21:07.868Z,99264.06
2022-09-11T14:23:44.097Z,99265.25
2022-09-11T14:26:17.138Z,99259.63
2022-09-11T14:29:02.555Z,99262.03
2022-09-11T14:31:35.893Z,99259.19
2022-09-11T14:34:19.561Z,99260.72
2022-09-11T14:36:53.574Z,99261.41
2022-09-11T14:39:36.512Z,99268.81
2022-09-11T14:42:09.438Z,99260.69
2022-09-11T14:44:39.634Z,99255.66
2022-09-11T14:47:16.465Z,99264.28
2022-09-11T14:49:47.175Z,99251.69
2022-09-11T14:52:19.775Z,99255.78
2022-09-11T14:54:51.615Z,99249.41
2022-09-11T14:57:23.166Z,99255.44
2022-09-11T14:59:54.462Z,99257.47
2022-09-11T15:02:25.829Z,99248.09
2022-09-11T15:04:57.996Z,99248.88
2022-09-11T15:07:29.202Z,99250.31
2022-09-11T15:09:57.839Z,99246.91
2022-09-11T15:12:29.471Z,99241.13
2022-09-11T15:14:59.413Z,99239.91
2022-09-11T15:17:31.975Z,99247.41
2022-09-11T15:20:02.611Z,99237.84
2022-09-11T15:22:35.386Z,99232.72
2022-09-11T15:25:03.856Z,99228.78
2022-09-11T15:27:32.294Z,99228.78
2022-09-11T15:30:00.799Z,99237.31
2022-09-11T15:32:29.316Z,99230.06
2022-09-11T15:34:57.537Z,99225.81
2022-09-11T15:37:27.700Z,99223.09
2022-09-11T15:39:56.408Z,99233.28
2022-09-11T15:42:25.658Z,99230.06
2022-09-11T15:44:54.562Z,99231.41
2022-09-11T15:47:23.190Z,99231.41
2022-09-11T15:49:51.818Z,99229.06
2022-09-11T15:52:20.407Z,99224.28
2022-09-11T15:54:51.120Z,99225.06
2022-09-11T15:57:19.958Z,99225.44
2022-09-11T15:59:50.164Z,99219.81
2022-09-11T16:02:18.921Z,99227.09
2022-09-11T16:04:51.647Z,99227.53
2022-09-11T16:07:22.417Z,99234.13
2022-09-11T16:09:52.782Z,99227.63
2022-09-11T16:12:24.495Z,99231.09
2022-09-11T16:14:52.830Z,99229.63
2022-09-11T16:17:23.264Z,99238.06
2022-09-11T16:19:55.250Z,99238.69
2022-09-11T16:22:25.892Z,99229.63
2022-09-11T16:24:56.548Z,99224.69
2022-09-11T16:27:26.018Z,99225.41
2022-09-11T16:30:39.204Z,99228.13
2022-09-11T16:32:45.443Z,99235.69
2022-09-11T16:35:15.682Z,99232.25
2022-09-11T16:37:44.394Z,99234.34
2022-09-11T16:40:16.986Z,99228.09
2022-09-11T16:42:46.709Z,99231.66
2022-09-11T16:45:16.075Z,99227.06
2022-09-11T16:47:44.784Z,99232.66
2022-09-11T16:50:13.356Z,99229.78
2022-09-11T16:52:41.394Z,99228.75
2022-09-11T16:55:11.702Z,99229.09
2022-09-11T16:57:41.680Z,99219.97
2022-09-11T17:00:14.712Z,99229.13
2022-09-11T17:02:43.099Z,99221.94
2022-09-11T17:05:12.459Z,99218.06
2022-09-11T17:07:45.632Z,99213.47
2022-09-11T17:10:15.507Z,99219.53
2022-09-11T17:12:45.270Z,99220.84
2022-09-11T17:15:13.568Z,99214.31
2022-09-11T17:17:43.872Z,99213.22
2022-09-11T17:20:13.323Z,99220.09
2022-09-11T17:22:41.879Z,99222.03
2022-09-11T17:25:12.128Z,99219.66
2022-09-11T17:27:40.497Z,99216.78
2022-09-11T17:30:17.093Z,99218.72
2022-09-11T17:32:45.905Z,99219.63
2022-09-11T17:35:14.876Z,99216.75
2022-09-11T17:37:46.203Z,99214.72
2022-09-11T17:40:15.249Z,99213.88
2022-09-11T17:42:43.901Z,99220.81
2022-09-11T17:45:15.777Z,99225.84
2022-09-11T17:47:44.494Z,99227.84
2022-09-11T17:50:15.198Z,99227.31
2022-09-11T17:52:43.674Z,99229.94
2022-09-11T17:55:12.054Z,99233.81
2022-09-11T17:57:44.505Z,99234.78
2022-09-11T18:00:17.064Z,99234.13
2022-09-11T18:02:46.814Z,99238.16
2022-09-11T18:05:17.608Z,99241.63
2022-09-11T18:07:48.391Z,99244.34
2022-09-11T18:10:16.796Z,99243.16
2022-09-11T18:12:45.138Z,99243.47
2022-09-11T18:15:16.018Z,99246.88
2022-09-11T18:17:48.184Z,99260.91
2022-09-11T18:20:18.133Z,99246.78
2022-09-11T18:22:46.215Z,99253.34
2022-09-11T18:25:17.453Z,99255.03
2022-09-11T18:27:49.956Z,99260.91
2022-09-11T18:30:20.957Z,99256.53
2022-09-11T18:32:50.021Z,99263.75
2022-09-11T18:35:19.066Z,99256.34
2022-09-11T18:37:49.316Z,99256.81
2022-09-11T18:40:18.257Z,99257.75
2022-09-11T18:42:46.864Z,99256.22
2022-09-11T18:45:18.998Z,99255.13
2022-09-11T18:47:53.288Z,99253.69
2022-09-11T18:50:24.323Z,99267.44
2022-09-11T18:52:54.865Z,99264.69
2022-09-11T18:55:24.575Z,99260.59
2022-09-11T18:57:55.638Z,99271.09
2022-09-11T19:00:24.032Z,99270.31
2022-09-11T19:02:57.269Z,99277.50
2022-09-11T19:05:26.559Z,99276.13
2022-09-11T19:08:04.182Z,99272.91
2022-09-11T19:10:32.651Z,99279.94
2022-09-11T19:13:01.281Z,99278.94
2022-09-11T19:15:31.880Z,99285.22
2022-09-11T19:18:02.424Z,99292.78
2022-09-11T19:20:31.163Z,99292.94
2022-09-11T19:23:02.912Z,99298.75
2022-09-11T19:25:31.906Z,99299.03
2022-09-11T19:28:00.413Z,99297.53
2022-09-11T19:30:29.475Z,99300.34
2022-09-11T19:32:57.703Z,99300.59
2022-09-11T19:35:30.176Z,99301.72
2022-09-11T19:38:00.272Z,99287.19
2022-09-11T19:40:28.536Z,99299.75
2022-09-11T19:42:57.850Z,99306.13
2022-09-11T19:45:27.952Z,99304.75
2022-09-11T19:48:00.223Z,99305.00
2022-09-11T19:50:34.054Z,99309.50
2022-09-11T19:53:04.149Z,99304.03
2022-09-11T19:55:35.410Z,99308.97
2022-09-11T19:58:04.956Z,99304.84
2022-09-11T20:00:33.562Z,99304.44
2022-09-11T20:03:02.742Z,99300.22
2022-09-11T20:05:34.298Z,99298.94
2022-09-11T20:08:03.997Z,99291.34
2022-09-11T20:10:32.442Z,99299.34
2022-09-11T20:13:01.146Z,99294.00
2022-09-11T20:15:29.674Z,99290.13
2022-09-11T20:17:57.981Z,99293.94
2022-09-11T20:20:26.674Z,99299.00
2022-09-11T20:23:00.461Z,99289.38
2022-09-11T20:25:29.295Z,99289.34
2022-09-11T20:27:57.931Z,99302.66
2022-09-11T20:30:27.218Z,99296.88
2022-09-11T20:32:57.572Z,99306.88
2022-09-11T20:35:27.533Z,99305.84
2022-09-11T20:37:57.993Z,99303.88
2022-09-11T20:40:27.650Z,99308.91
2022-09-11T20:42:56.043Z,99313.81
2022-09-11T20:45:24.392Z,99309.22
2022-09-11T20:48:00.484Z,99300.88
2022-09-11T20:50:29.487Z,99303.03
2022-09-11T20:53:00.504Z,99311.56
2022-09-11T20:55:31.910Z,99297.50
2022-09-11T20:58:00.768Z,99302.84
2022-09-11T21:00:30.808Z,99308.09
2022-09-11T21:03:01.271Z,99301.75
2022-09-11T21:05:29.499Z,99308.53
2022-09-11T21:08:00.712Z,99303.44
2022-09-11T21:10:29.282Z,99301.91
2022-09-11T21:12:58.697Z,99299.19
2022-09-11T21:15:27.176Z,99297.56
2022-09-11T21:17:55.198Z,99292.19
2022-09-11T21:20:24.128Z,99296.00
2022-09-11T21:22:52.634Z,99300.16
2022-09-11T21:25:22.618Z,99297.56
2022-09-11T21:27:51.225Z,99288.97
2022-09-11T21:30:19.880Z,99297.69
2022-09-11T21:32:48.280Z,99294.69
2022-09-11T21:35:17.276Z,99293.53
2022-09-11T21:37:53.193Z,99301.75
2022-09-11T21:40:25.739Z,99290.22
2022-09-11T21:42:54.222Z,99291.47
2022-09-11T21:45:23.100Z,99289.22
2022-09-11T21:47:54.443Z,99293.72
2022-09-11T21:50:23.575Z,99295.81
2022-09-11T21:52:52.237Z,99292.25
2022-09-11T21:55:21.848Z,99298.44
2022-09-11T21:57:51.765Z,99302.31
2022-09-11T22:00:21.275Z,99300.75
2022-09-11T22:02:49.908Z,99291.91
2022-09-11T22:05:20.827Z,99303.91
2022-09-11T22:07:49.409Z,99295.28
2022-09-11T22:10:18.272Z,99296.97
2022-09-11T22:12:46.936Z,99292.16
2022-09-11T22:15:17.272Z,99299.47
2022-09-11T22:17:46.949Z,99301.47
2022-09-11T22:20:15.372Z,99299.16
2022-09-11T22:22:44.180Z,99293.84
2022-09-11T22:25:12.737Z,99291.88
2022-09-11T22:27:41.049Z,99286.69
2022-09-11T22:30:10.151Z,99290.00
2022-09-11T22:32:46.264Z,99282.66
2022-09-11T22:35:15.303Z,99283.81
2022-09-11T22:37:44.795Z,99285.38
2022-09-11T22:40:13.219Z,99284.84
2022-09-11T22:42:43.103Z,99283.41
2022-09-11T22:45:12.146Z,99283.50
2022-09-11T22:47:40.717Z,99291.78
2022-09-11T22:50:11.832Z,99280.38
2022-09-11T22:52:40.600Z,99278.34
2022-09-11T22:55:12.344Z,99288.03
2022-09-11T22:57:40.758Z,99283.44
2022-09-11T23:00:12.231Z,99281.91
2022-09-11T23:02:40.940Z,99279.13
2022-09-11T23:05:28.358Z,99283.97
2022-09-11T23:07:56.435Z,99283.38
2022-09-11T23:10:27.250Z,99275.25
2022-09-11T23:12:55.881Z,99274.78
2022-09-11T23:15:24.251Z,99274.66
2022-09-11T23:17:52.383Z,99279.28
2022-09-11T23:20:22.542Z,99274.44
2022-09-11T23:22:51.193Z,99272.34
2022-09-11T23:25:21.805Z,99273.56
2022-09-11T23:27:50.488Z,99275.50
2022-09-11T23:30:19.479Z,99275.16
2022-09-11T23:32:47.906Z,99274.19
2022-09-11T23:35:17.113Z,99273.06
2022-09-11T23:37:46.915Z,99269.56
2022-09-11T23:40:16.130Z,99267.38
2022-09-11T23:42:47.078Z,99271.00
2022-09-11T23:45:16.824Z,99268.84
2022-09-11T23:47:45.144Z,99271.16
2022-09-11T23:50:13.837Z,99264.97
2022-09-11T23:52:42.192Z,99265.81
2022-09-11T23:55:12.981Z,99256.84
2022-09-11T23:57:41.289Z,99262.56
